createdAt,value
2019-02-21T00:00:26.633Z,98385.89
2019-02-21T00:02:53.538Z,98386.48
2019-02-21T00:05:20.364Z,98389.81
2019-02-21T00:07:47.027Z,98390.34
2019-02-21T00:10:13.644Z,98389.44
2019-02-21T00:12:40.806Z,98386.03
2019-02-21T00:15:07.714Z,98395.44
2019-02-21T00:17:34.670Z,98396.91
2019-02-21T00:20:01.836Z,98393.73
2019-02-21T00:22:29.747Z,98396.45
2019-02-21T00:24:56.683Z,98399.39
2019-02-21T00:27:24.048Z,98396.35
2019-02-21T00:29:50.765Z,98401.52
2019-02-21T00:32:17.722Z,98408.53
2019-02-21T00:34:46.136Z,98409.58
2019-02-21T00:37:12.731Z,98402.70
2019-02-21T00:39:39.361Z,98404.24
2019-02-21T00:42:05.966Z,98406.47
2019-02-21T00:44:32.958Z,98409.48
2019-02-21T00:46:59.801Z,98416.63
2019-02-21T00:49:26.426Z,98412.03
2019-02-21T00:51:53.318Z,98418.56
2019-02-21T00:54:20.086Z,98419.93
2019-02-21T00:56:47.026Z,98418.70
2019-02-21T00:59:13.671Z,98411.06
2019-02-21T01:01:41.140Z,98413.23
2019-02-21T01:04:07.782Z,98415.27
2019-02-21T01:06:34.501Z,98418.33
2019-02-21T01:09:01.604Z,98417.92
2019-02-21T01:11:28.213Z,98420.42
2019-02-21T01:13:55.320Z,98414.41
2019-02-21T01:16:22.410Z,98405.38
2019-02-21T01:18:49.350Z,98411.06
2019-02-21T01:21:15.958Z,98409.34
2019-02-21T01:23:43.045Z,98416.86
2019-02-21T01:26:09.805Z,98420.59
2019-02-21T01:28:36.473Z,98421.69
2019-02-21T01:31:03.137Z,98425.04
2019-02-21T01:33:30.497Z,98427.53
2019-02-21T01:35:57.142Z,98433.25
2019-02-21T01:38:23.769Z,98429.94
2019-02-21T01:40:51.547Z,98433.04
2019-02-21T01:43:18.392Z,98426.73
2019-02-21T01:45:44.964Z,98424.81
2019-02-21T01:48:13.161Z,98423.70
2019-02-21T01:50:40.019Z,98422.19
2019-02-21T01:53:06.934Z,98423.42
2019-02-21T01:55:33.628Z,98418.60
2019-02-21T01:58:00.288Z,98425.91
2019-02-21T02:00:27.375Z,98433.83
2019-02-21T02:02:54.267Z,98432.98
2019-02-21T02:05:20.885Z,98431.81
2019-02-21T02:07:47.545Z,98435.86
2019-02-21T02:10:14.186Z,98447.27
2019-02-21T02:12:40.771Z,98448.13
2019-02-21T02:15:07.466Z,98441.81
2019-02-21T02:17:34.134Z,98445.45
2019-02-21T02:20:01.013Z,98443.45
2019-02-21T02:22:27.753Z,98447.09
2019-02-21T02:24:54.471Z,98445.66
2019-02-21T02:27:21.433Z,98443.47
2019-02-21T02:29:48.348Z,98444.98
2019-02-21T02:32:15.048Z,98445.79
2019-02-21T02:34:41.650Z,98445.59
2019-02-21T02:37:08.515Z,98450.13
2019-02-21T02:39:35.168Z,98441.73
2019-02-21T02:42:01.794Z,98448.73
2019-02-21T02:44:28.570Z,98446.40
2019-02-21T02:49:29.049Z,98445.09
2019-02-21T02:51:56.006Z,98443.38
2019-02-21T02:54:22.917Z,98443.61
2019-02-21T02:56:50.239Z,98446.12
2019-02-21T02:59:17.759Z,98442.77
2019-02-21T03:01:45.701Z,98447.66
2019-02-21T03:04:12.723Z,98450.83
2019-02-21T03:06:39.386Z,98448.95
2019-02-21T03:09:06.176Z,98449.78
2019-02-21T03:11:32.883Z,98450.53
2019-02-21T03:13:59.835Z,98458.77
2019-02-21T03:16:27.107Z,98454.53
2019-02-21T03:18:53.759Z,98457.98
2019-02-21T03:21:21.192Z,98459.02
2019-02-21T03:23:48.190Z,98457.43
2019-02-21T03:26:16.303Z,98454.59
2019-02-21T03:28:43.027Z,98461.14
2019-02-21T03:31:10.074Z,98461.76
2019-02-21T03:33:36.745Z,98464.78
2019-02-21T03:36:03.595Z,98469.94
2019-02-21T03:38:34.849Z,98467.69
2019-02-21T03:40:59.431Z,98472.00
2019-02-21T03:43:26.114Z,98466.70
2019-02-21T03:45:53.929Z,98471.41
2019-02-21T03:48:20.793Z,98475.70
2019-02-21T03:50:47.726Z,98474.34
2019-02-21T03:53:16.157Z,98477.50
2019-02-21T03:55:42.872Z,98482.16
2019-02-21T03:58:09.839Z,98481.27
2019-02-21T04:00:36.467Z,98483.98
2019-02-21T04:03:03.858Z,98488.86
2019-02-21T04:05:30.549Z,98483.55
2019-02-21T04:07:57.265Z,98484.94
2019-02-21T04:10:24.402Z,98483.52
2019-02-21T04:12:51.382Z,98483.14
2019-02-21T04:15:18.375Z,98477.80
2019-02-21T04:17:46.747Z,98488.36
2019-02-21T04:20:13.460Z,98481.97
2019-02-21T04:22:40.459Z,98487.38
2019-02-21T04:25:08.142Z,98479.80
2019-02-21T04:27:34.735Z,98479.03
2019-02-21T04:30:01.805Z,98477.59
2019-02-21T04:32:28.715Z,98478.13
2019-02-21T04:34:55.665Z,98478.95
2019-02-21T04:37:22.695Z,98479.56
2019-02-21T04:39:49.615Z,98480.05
2019-02-21T04:42:16.923Z,98478.24
2019-02-21T04:44:43.559Z,98475.75
2019-02-21T04:47:10.801Z,98473.13
2019-02-21T04:49:37.634Z,98473.01
2019-02-21T04:52:05.195Z,98470.36
2019-02-21T04:54:31.737Z,98467.13
2019-02-21T04:56:58.960Z,98470.41
2019-02-21T04:59:26.101Z,98468.72
2019-02-21T05:01:53.077Z,98465.73
2019-02-21T05:04:20.001Z,98474.98
2019-02-21T05:06:47.312Z,98476.57
2019-02-21T05:09:14.018Z,98470.75
2019-02-21T05:11:40.962Z,98470.75
2019-02-21T05:14:07.609Z,98462.90
2019-02-21T05:16:34.231Z,98466.47
2019-02-21T05:19:00.993Z,98465.00
2019-02-21T05:21:27.657Z,98469.16
2019-02-21T05:23:54.331Z,98469.77
2019-02-21T05:26:22.714Z,98469.03
2019-02-21T05:28:49.330Z,98470.55
2019-02-21T05:31:17.534Z,98473.29
2019-02-21T05:33:44.265Z,98466.88
2019-02-21T05:36:10.829Z,98477.42
2019-02-21T05:38:37.460Z,98475.63
2019-02-21T05:41:04.600Z,98472.80
2019-02-21T05:43:31.752Z,98484.24
2019-02-21T05:45:58.405Z,98479.91
2019-02-21T05:48:25.776Z,98482.05
2019-02-21T05:50:52.498Z,98483.70
2019-02-21T05:53:19.676Z,98489.78
2019-02-21T05:55:47.899Z,98490.50
2019-02-21T05:58:14.503Z,98491.61
2019-02-21T06:00:41.220Z,98489.55
2019-02-21T06:03:07.895Z,98485.95
2019-02-21T06:05:34.693Z,98487.55
2019-02-21T06:08:01.304Z,98489.08
2019-02-21T06:10:27.889Z,98482.95
2019-02-21T06:12:54.690Z,98475.59
2019-02-21T06:15:21.326Z,98484.53
2019-02-21T06:17:48.386Z,98488.09
2019-02-21T06:20:17.706Z,98488.43
2019-02-21T06:22:43.377Z,98491.95
2019-02-21T06:25:10.006Z,98493.47
2019-02-21T06:27:38.119Z,98498.79
2019-02-21T06:30:06.165Z,98499.66
2019-02-21T06:32:32.791Z,98496.58
2019-02-21T06:35:02.410Z,98502.38
2019-02-21T06:37:28.736Z,98504.47
2019-02-21T06:39:55.575Z,98504.02
2019-02-21T06:42:23.284Z,98504.55
2019-02-21T06:44:50.929Z,98506.02
2019-02-21T06:47:21.257Z,98512.66
2019-02-21T06:49:50.767Z,98516.55
2019-02-21T06:52:18.711Z,98519.27
2019-02-21T06:54:45.558Z,98516.86
2019-02-21T06:57:12.735Z,98521.41
2019-02-21T06:59:45.670Z,98526.94
2019-02-21T07:02:13.615Z,98525.59
2019-02-21T07:04:43.063Z,98531.66
2019-02-21T07:07:12.151Z,98530.33
2019-02-21T07:09:42.854Z,98539.59
2019-02-21T07:12:13.505Z,98546.75
2019-02-21T07:14:40.125Z,98539.02
2019-02-21T07:17:08.652Z,98537.00
2019-02-21T07:19:40.379Z,98534.30
2019-02-21T07:22:07.798Z,98538.22
2019-02-21T07:24:38.316Z,98544.77
2019-02-21T07:27:10.204Z,98538.95
2019-02-21T07:29:38.826Z,98541.91
2019-02-21T07:32:06.944Z,98544.73
2019-02-21T07:34:34.861Z,98539.55
2019-02-21T07:37:17.738Z,98541.91
2019-02-21T07:39:36.305Z,98541.92
2019-02-21T07:42:07.292Z,98549.09
2019-02-21T07:44:34.146Z,98548.03
2019-02-21T07:47:01.372Z,98542.34
2019-02-21T07:49:32.104Z,98539.61
2019-02-21T07:52:01.575Z,98542.48
2019-02-21T07:54:31.493Z,98541.50
2019-02-21T07:57:01.976Z,98540.99
2019-02-21T07:59:29.454Z,98537.20
2019-02-21T08:01:56.384Z,98530.20
2019-02-21T08:04:23.533Z,98533.57
2019-02-21T08:06:50.433Z,98529.52
2019-02-21T08:09:18.936Z,98527.70
2019-02-21T08:11:45.638Z,98523.52
2019-02-21T08:14:12.539Z,98526.50
2019-02-21T08:16:39.420Z,98527.06
2019-02-21T08:19:06.051Z,98528.88
2019-02-21T08:21:32.666Z,98515.73
2019-02-21T08:24:00.005Z,98522.37
2019-02-21T08:26:26.731Z,98519.06
2019-02-21T08:28:53.418Z,98513.30
2019-02-21T08:31:20.297Z,98517.42
2019-02-21T08:33:57.650Z,98516.94
2019-02-21T08:36:15.262Z,98515.30
2019-02-21T08:38:42.018Z,98514.61
2019-02-21T08:41:08.982Z,98511.28
2019-02-21T08:43:37.327Z,98516.50
2019-02-21T08:46:03.979Z,98507.13
2019-02-21T08:48:30.585Z,98506.94
2019-02-21T08:50:57.578Z,98507.33
2019-02-21T08:53:24.331Z,98507.02
2019-02-21T08:55:51.236Z,98503.56
2019-02-21T08:58:18.141Z,98505.92
2019-02-21T09:00:44.780Z,98509.77
2019-02-21T09:03:11.418Z,98505.95
2019-02-21T09:05:38.622Z,98498.28
2019-02-21T09:08:05.626Z,98501.48
2019-02-21T09:10:32.746Z,98505.45
2019-02-21T09:12:59.391Z,98501.64
2019-02-21T09:15:26.267Z,98498.48
2019-02-21T09:17:54.196Z,98496.12
2019-02-21T09:20:21.414Z,98493.39
2019-02-21T09:22:48.108Z,98490.47
2019-02-21T09:25:15.476Z,98499.92
2019-02-21T09:27:42.170Z,98500.73
2019-02-21T09:30:08.915Z,98491.81
2019-02-21T09:32:35.806Z,98495.43
2019-02-21T09:35:02.659Z,98492.43
2019-02-21T09:37:29.346Z,98493.33
2019-02-21T09:39:56.292Z,98491.91
2019-02-21T09:42:23.011Z,98489.98
2019-02-21T09:44:51.069Z,98491.03
2019-02-21T09:47:17.729Z,98480.58
2019-02-21T09:49:44.352Z,98480.22
2019-02-21T09:52:10.979Z,98483.05
2019-02-21T09:54:37.917Z,98486.33
2019-02-21T09:57:12.726Z,98486.83
2019-02-21T09:59:33.204Z,98482.23
2019-02-21T10:01:59.883Z,98490.53
2019-02-21T10:04:32.188Z,98484.27
2019-02-21T10:06:54.941Z,98485.84
2019-02-21T10:09:21.699Z,98484.52
2019-02-21T10:11:48.508Z,98477.73
2019-02-21T10:14:15.120Z,98478.82
2019-02-21T10:16:41.686Z,98473.77
2019-02-21T10:19:08.296Z,98476.90
2019-02-21T10:21:35.494Z,98469.39
2019-02-21T10:24:02.459Z,98465.95
2019-02-21T10:26:29.560Z,98462.66
2019-02-21T10:28:56.623Z,98461.58
2019-02-21T10:31:23.762Z,98460.70
2019-02-21T10:33:52.054Z,98454.41
2019-02-21T10:36:18.656Z,98439.04
2019-02-21T10:38:45.477Z,98440.80
2019-02-21T10:41:12.148Z,98431.06
2019-02-21T10:43:39.148Z,98428.17
2019-02-21T10:46:05.751Z,98425.16
2019-02-21T10:48:32.671Z,98424.13
2019-02-21T10:51:01.574Z,98423.20
2019-02-21T10:53:28.572Z,98416.56
2019-02-21T10:55:55.821Z,98419.50
2019-02-21T10:58:23.152Z,98416.50
2019-02-21T11:00:49.895Z,98409.73
2019-02-21T11:03:17.087Z,98409.86
2019-02-21T11:05:45.284Z,98400.48
2019-02-21T11:08:14.456Z,98401.06
2019-02-21T11:10:45.696Z,98399.84
2019-02-21T11:13:17.290Z,98395.48
2019-02-21T11:15:44.952Z,98391.56
2019-02-21T11:18:12.671Z,98391.43
2019-02-21T11:20:40.547Z,98394.88
2019-02-21T11:23:08.725Z,98387.69
2019-02-21T11:25:35.985Z,98388.73
2019-02-21T11:28:05.649Z,98376.63
2019-02-21T11:30:35.895Z,98379.27
2019-02-21T11:33:04.245Z,98376.23
2019-02-21T11:35:31.669Z,98363.83
2019-02-21T11:37:59.442Z,98355.48
2019-02-21T11:40:28.309Z,98361.45
2019-02-21T11:42:57.920Z,98356.94
2019-02-21T11:45:27.783Z,98353.25
2019-02-21T11:47:57.139Z,98349.45
2019-02-21T11:50:29.203Z,98342.77
2019-02-21T11:52:56.936Z,98343.78
2019-02-21T11:55:25.004Z,98346.33
2019-02-21T11:57:53.030Z,98345.77
2019-02-21T12:00:25.189Z,98332.66
2019-02-21T12:02:53.381Z,98336.08
2019-02-21T12:05:30.590Z,98337.67
2019-02-21T12:07:48.332Z,98331.66
2019-02-21T12:10:14.966Z,98328.42
2019-02-21T12:12:41.853Z,98323.47
2019-02-21T12:15:09.024Z,98319.91
2019-02-21T12:17:36.002Z,98317.22
2019-02-21T12:20:03.196Z,98316.69
2019-02-21T12:22:30.101Z,98320.93
2019-02-21T12:24:57.315Z,98314.03
2019-02-21T12:27:24.221Z,98316.71
2019-02-21T12:29:51.154Z,98309.82
2019-02-21T12:32:17.881Z,98307.44
2019-02-21T12:34:44.446Z,98297.55
2019-02-21T12:37:11.442Z,98297.20
2019-02-21T12:39:38.249Z,98292.80
2019-02-21T12:42:04.864Z,98287.25
2019-02-21T12:44:31.610Z,98285.05
2019-02-21T12:46:58.529Z,98282.44
2019-02-21T12:49:25.655Z,98279.31
2019-02-21T12:51:54.280Z,98274.50
2019-02-21T12:54:20.895Z,98272.92
2019-02-21T12:56:47.562Z,98262.63
2019-02-21T12:59:15.443Z,98265.44
2019-02-21T13:01:42.108Z,98266.45
2019-02-21T13:04:09.003Z,98259.28
2019-02-21T13:06:35.652Z,98256.85
2019-02-21T13:09:02.602Z,98251.72
2019-02-21T13:11:29.297Z,98257.55
2019-02-21T13:13:55.935Z,98250.57
2019-02-21T13:16:24.108Z,98251.38
2019-02-21T13:18:50.787Z,98252.25
2019-02-21T13:21:17.417Z,98245.33
2019-02-21T13:23:44.059Z,98247.95
2019-02-21T13:26:11.818Z,98242.13
2019-02-21T13:28:38.943Z,98239.80
2019-02-21T13:31:05.985Z,98237.90
2019-02-21T13:33:33.104Z,98236.79
2019-02-21T13:36:00.096Z,98242.23
2019-02-21T13:38:27.315Z,98235.11
2019-02-21T13:40:53.938Z,98235.67
2019-02-21T13:43:20.556Z,98239.11
2019-02-21T13:45:47.322Z,98239.98
2019-02-21T13:48:14.258Z,98234.91
2019-02-21T13:50:41.339Z,98237.09
2019-02-21T13:53:08.267Z,98236.89
2019-02-21T13:55:35.432Z,98238.16
2019-02-21T13:58:02.531Z,98234.20
2019-02-21T14:00:29.413Z,98237.72
2019-02-21T14:02:58.055Z,98238.34
2019-02-21T14:05:24.694Z,98238.81
2019-02-21T14:07:51.350Z,98237.00
2019-02-21T14:10:18.296Z,98233.24
2019-02-21T14:12:45.615Z,98225.63
2019-02-21T14:15:12.326Z,98230.16
2019-02-21T14:17:39.229Z,98224.47
2019-02-21T14:20:06.161Z,98224.69
2019-02-21T14:22:32.858Z,98224.76
2019-02-21T14:24:59.481Z,98223.38
2019-02-21T14:27:26.311Z,98215.81
2019-02-21T14:29:52.929Z,98211.81
2019-02-21T14:32:20.139Z,98207.91
2019-02-21T14:34:46.698Z,98211.88
2019-02-21T14:37:13.361Z,98206.75
2019-02-21T14:39:40.636Z,98207.56
2019-02-21T14:42:07.810Z,98205.00
2019-02-21T14:44:34.662Z,98203.76
2019-02-21T14:47:07.999Z,98198.05
2019-02-21T14:49:35.030Z,98199.34
2019-02-21T14:52:02.986Z,98197.48
2019-02-21T14:54:30.265Z,98195.13
2019-02-21T14:56:56.854Z,98195.05
2019-02-21T14:59:23.601Z,98191.92
2019-02-21T15:01:50.193Z,98189.52
2019-02-21T15:04:16.888Z,98191.84
2019-02-21T15:06:43.846Z,98192.86
2019-02-21T15:09:10.967Z,98196.59
2019-02-21T15:11:37.901Z,98196.78
2019-02-21T15:14:04.960Z,98189.52
2019-02-21T15:16:33.028Z,98188.81
2019-02-21T15:18:59.812Z,98189.48
2019-02-21T15:21:27.517Z,98183.77
2019-02-21T15:23:54.435Z,98190.30
2019-02-21T15:26:23.266Z,98194.62
2019-02-21T15:28:51.892Z,98186.55
2019-02-21T15:31:19.542Z,98182.42
2019-02-21T15:33:51.010Z,98184.05
2019-02-21T15:36:18.495Z,98184.33
2019-02-21T15:38:49.455Z,98182.46
2019-02-21T15:41:17.420Z,98190.73
2019-02-21T15:43:50.156Z,98189.92
2019-02-21T15:46:17.513Z,98195.31
2019-02-21T15:48:45.249Z,98190.70
2019-02-21T15:51:14.007Z,98193.01
2019-02-21T15:53:41.705Z,98194.06
2019-02-21T15:56:11.316Z,98190.72
2019-02-21T15:58:38.670Z,98189.47
2019-02-21T16:01:09.378Z,98198.06
2019-02-21T16:03:35.735Z,98195.23
2019-02-21T16:06:03.648Z,98199.77
2019-02-21T16:08:30.307Z,98192.47
2019-02-21T16:10:56.954Z,98197.86
2019-02-21T16:13:23.926Z,98199.47
2019-02-21T16:15:51.001Z,98200.80
2019-02-21T16:18:17.931Z,98196.20
2019-02-21T16:20:44.851Z,98200.53
2019-02-21T16:23:11.621Z,98197.83
2019-02-21T16:25:38.261Z,98196.63
2019-02-21T16:28:05.161Z,98196.95
2019-02-21T16:30:31.776Z,98201.08
2019-02-21T16:32:58.739Z,98206.88
2019-02-21T16:35:27.165Z,98198.66
2019-02-21T16:37:53.896Z,98204.59
2019-02-21T16:40:21.138Z,98209.95
2019-02-21T16:42:47.906Z,98210.52
2019-02-21T16:45:14.826Z,98211.63
2019-02-21T16:47:42.007Z,98209.59
2019-02-21T16:50:08.746Z,98209.59
2019-02-21T16:52:36.844Z,98214.59
2019-02-21T16:55:04.389Z,98215.66
2019-02-21T16:57:31.155Z,98221.34
2019-02-21T16:59:57.727Z,98224.16
2019-02-21T17:02:24.494Z,98223.46
2019-02-21T17:04:51.197Z,98230.39
2019-02-21T17:07:20.178Z,98229.05
2019-02-21T17:09:47.352Z,98233.86
2019-02-21T17:12:14.523Z,98235.03
2019-02-21T17:14:41.290Z,98235.13
2019-02-21T17:17:08.228Z,98232.27
2019-02-21T17:19:34.830Z,98233.85
2019-02-21T17:22:01.524Z,98245.99
2019-02-21T17:24:28.383Z,98244.24
2019-02-21T17:26:55.055Z,98241.05
2019-02-21T17:29:21.929Z,98238.87
2019-02-21T17:31:48.829Z,98243.14
2019-02-21T17:34:15.722Z,98243.27
2019-02-21T17:36:42.987Z,98244.03
2019-02-21T17:39:09.857Z,98249.06
2019-02-21T17:41:37.872Z,98251.29
2019-02-21T17:44:05.084Z,98257.69
2019-02-21T17:46:31.889Z,98264.95
2019-02-21T17:48:58.821Z,98259.70
2019-02-21T17:51:25.440Z,98256.37
2019-02-21T17:53:52.861Z,98262.13
2019-02-21T17:56:19.873Z,98266.45
2019-02-21T17:58:47.046Z,98264.39
2019-02-21T18:01:13.965Z,98261.87
2019-02-21T18:03:41.211Z,98265.70
2019-02-21T18:06:07.991Z,98265.17
2019-02-21T18:08:35.292Z,98261.13
2019-02-21T18:11:02.213Z,98259.04
2019-02-21T18:13:30.082Z,98268.73
2019-02-21T18:15:56.697Z,98263.80
2019-02-21T18:18:23.523Z,98267.95
2019-02-21T18:20:50.396Z,98276.02
2019-02-21T18:23:17.481Z,98262.37
2019-02-21T18:25:44.416Z,98269.11
2019-02-21T18:28:11.326Z,98269.03
2019-02-21T18:30:38.346Z,98273.70
2019-02-21T18:33:05.803Z,98268.60
2019-02-21T18:35:33.594Z,98264.48
2019-02-21T18:38:00.413Z,98266.48
2019-02-21T18:40:28.824Z,98260.22
2019-02-21T18:42:55.466Z,98259.27
2019-02-21T18:45:22.190Z,98264.03
2019-02-21T18:47:48.848Z,98258.44
2019-02-21T18:50:15.881Z,98262.61
2019-02-21T18:52:42.876Z,98263.19
2019-02-21T18:55:11.666Z,98257.66
2019-02-21T18:57:38.610Z,98264.70
2019-02-21T19:00:06.197Z,98262.23
2019-02-21T19:02:32.863Z,98262.67
2019-02-21T19:04:59.761Z,98252.50
2019-02-21T19:07:26.381Z,98245.63
2019-02-21T19:09:53.024Z,98241.86
2019-02-21T19:12:20.163Z,98237.58
2019-02-21T19:14:47.102Z,98239.86
2019-02-21T19:17:14.174Z,98238.73
2019-02-21T19:19:41.114Z,98238.99
2019-02-21T19:22:08.236Z,98235.84
2019-02-21T19:24:37.048Z,98232.25
2019-02-21T19:27:04.086Z,98225.37
2019-02-21T19:29:30.762Z,98224.87
2019-02-21T19:31:57.538Z,98219.02
2019-02-21T19:34:24.558Z,98219.50
2019-02-21T19:36:51.351Z,98218.00
2019-02-21T19:39:18.503Z,98216.85
2019-02-21T19:41:45.664Z,98214.06
2019-02-21T19:44:12.648Z,98215.61
2019-02-21T19:46:39.347Z,98212.28
2019-02-21T19:49:06.722Z,98208.70
2019-02-21T19:51:33.519Z,98212.41
2019-02-21T19:54:00.397Z,98208.44
2019-02-21T19:56:27.029Z,98207.42
2019-02-21T19:58:53.897Z,98208.22
2019-02-21T20:01:20.834Z,98206.22
2019-02-21T20:03:47.727Z,98207.74
2019-02-21T20:06:14.609Z,98204.08
2019-02-21T20:08:41.322Z,98199.68
2019-02-21T20:11:07.960Z,98196.14
2019-02-21T20:13:34.618Z,98203.23
2019-02-21T20:16:01.650Z,98205.58
2019-02-21T20:18:28.309Z,98203.80
2019-02-21T20:20:57.236Z,98202.54
2019-02-21T20:23:24.212Z,98197.20
2019-02-21T20:25:51.155Z,98189.54
2019-02-21T20:28:17.760Z,98191.62
2019-02-21T20:30:46.826Z,98189.86
2019-02-21T20:33:14.070Z,98180.41
2019-02-21T20:35:40.845Z,98183.56
2019-02-21T20:38:07.578Z,98187.14
2019-02-21T20:40:34.648Z,98188.85
2019-02-21T20:43:01.353Z,98183.34
2019-02-21T20:45:28.025Z,98183.94
2019-02-21T20:47:54.931Z,98182.33
2019-02-21T20:50:21.596Z,98178.73
2019-02-21T20:52:48.315Z,98179.95
2019-02-21T20:55:15.251Z,98177.28
2019-02-21T20:57:42.555Z,98183.20
2019-02-21T21:00:09.894Z,98184.23
2019-02-21T21:02:36.531Z,98183.12
2019-02-21T21:05:03.333Z,98193.70
2019-02-21T21:07:30.285Z,98186.95
2019-02-21T21:09:57.453Z,98188.50
2019-02-21T21:12:24.521Z,98192.92
2019-02-21T21:14:51.506Z,98188.34
2019-02-21T21:17:18.404Z,98199.33
2019-02-21T21:19:45.359Z,98194.75
2019-02-21T21:22:11.954Z,98189.24
2019-02-21T21:24:40.133Z,98190.10
2019-02-21T21:27:06.799Z,98185.81
2019-02-21T21:29:33.698Z,98190.59
2019-02-21T21:32:00.685Z,98188.56
2019-02-21T21:34:27.875Z,98192.55
2019-02-21T21:36:54.802Z,98199.22
2019-02-21T21:39:21.849Z,98195.27
2019-02-21T21:41:48.780Z,98183.16
2019-02-21T21:44:15.422Z,98178.89
2019-02-21T21:46:42.071Z,98179.05
2019-02-21T21:49:10.144Z,98181.09
2019-02-21T21:51:36.948Z,98182.48
2019-02-21T21:54:03.950Z,98180.80
2019-02-21T21:56:31.033Z,98183.16
2019-02-21T21:58:58.281Z,98176.33
2019-02-21T22:01:24.964Z,98172.23
2019-02-21T22:03:51.578Z,98170.60
2019-02-21T22:06:18.680Z,98167.47
2019-02-21T22:08:45.309Z,98166.42
2019-02-21T22:11:12.402Z,98169.53
2019-02-21T22:13:40.449Z,98188.91
2019-02-21T22:16:07.115Z,98188.53
2019-02-21T22:18:33.736Z,98190.30
2019-02-21T22:21:00.366Z,98190.45
2019-02-21T22:23:27.231Z,98184.16
2019-02-21T22:25:53.886Z,98187.84
2019-02-21T22:28:20.526Z,98191.22
2019-02-21T22:30:48.056Z,98189.83
2019-02-21T22:33:14.671Z,98187.63
2019-02-21T22:35:41.439Z,98189.60
2019-02-21T22:38:08.372Z,98197.80
2019-02-21T22:40:35.022Z,98202.30
2019-02-21T22:43:01.667Z,98197.48
2019-02-21T22:45:29.201Z,98189.53
2019-02-21T22:47:55.800Z,98196.06
2019-02-21T22:50:23.049Z,98196.22
2019-02-21T22:52:49.702Z,98190.49
2019-02-21T22:55:16.947Z,98187.77
2019-02-21T22:57:43.969Z,98193.88
2019-02-21T23:00:11.057Z,98183.04
2019-02-21T23:02:37.686Z,98179.41
2019-02-21T23:05:04.366Z,98177.52
2019-02-21T23:07:30.983Z,98171.41
2019-02-21T23:09:57.940Z,98164.71
2019-02-21T23:12:24.858Z,98174.60
2019-02-21T23:14:52.023Z,98175.81
2019-02-21T23:17:19.190Z,98171.30
2019-02-21T23:19:45.948Z,98167.80
2019-02-21T23:22:12.909Z,98162.73
2019-02-21T23:24:41.304Z,98161.63
2019-02-21T23:27:07.956Z,98162.99
2019-02-21T23:29:34.832Z,98167.70
2019-02-21T23:32:03.315Z,98153.10
2019-02-21T23:34:30.145Z,98152.25
2019-02-21T23:36:57.005Z,98153.47
2019-02-21T23:39:23.617Z,98152.59
2019-02-21T23:41:50.566Z,98158.42
2019-02-21T23:44:17.426Z,98158.22
2019-02-21T23:46:45.391Z,98149.39
2019-02-21T23:49:13.905Z,98151.22
2019-02-21T23:51:41.476Z,98138.48
2019-02-21T23:54:08.212Z,98138.98
2019-02-21T23:56:34.834Z,98142.80
2019-02-21T23:59:01.510Z,98136.13
